TVSA

Argyle Airport

Argyle, Saint Vincent and the Grenadines
TAF TVSA 202300Z 2100/2124 08010KT 9999 SCT016 BKN036 PROB40 TEMPO 2100/2107 5000 SHRA BKN014
Issued Valid From Valid To
Apr-20 @ 23:00 UTC
(5 hours ago)
Apr-21 @ 00:00 UTC
(4 hours ago)
Apr-22 @ 00:00 UTC
(in 20 hours)
Apr-21 @ 00:00 to Apr-22 @ 00:00
TAF TVSA 202300Z 2100/2124 08010KT 9999 SCT016 BKN036
Wind Visibility Clouds
80° at 10 knots 10,000+ meters
  • Scattered at 1,600' AGL
  • Broken at 3,600' AGL
Temporary  (Probability 40%) Apr-21 @ 00:00 to Apr-21 @ 07:00
PROB40 TEMPO 2100/2107 5000 SHRA BKN014
Visibility Clouds Conditions
5,005 meters
  • Broken at 1,400' AGL
  • Rain
TAF TVSA 202300Z 2100/2124 08010KT 9999 SCT016 BKN036 PROB40 TEMPO 2100/2107 5000 SHRA BKN014
Issued Apr-20 @ 23:00 UTC
(5 hours ago)
Valid From Apr-21 @ 00:00 UTC
(4 hours ago)
Valid To Apr-22 @ 00:00 UTC
(in 20 hours)
Apr-21 @ 00:00 - Apr-22 @ 00:00
Wind Visibility
80° at 10 knots 10,000+ meters
Clouds
  • Scattered at 1,600' AGL
  • Broken at 3,600' AGL
Probability 40% Temporary Apr-21 @ 00:00 - Apr-21 @ 07:00
Clouds
  • Broken at 1,400' AGL
Conditions
  • Rain